CheckWX is a tool to help pilots better visualize weather data.  It is not intended as a substitute for an official pre-flight weather briefing.

06:02:01 UTC

OIAH METAR
Gachsaran Airport
Gachsaran, Iran
Current

1 hour ago

OIAH 200500Z 00000KT CAVOK 25/07 Q1015
Observed
Oct-20 @ 05:00 UTC
Visibility
10,000+ meters
Flight Rules
VFR
Cloud Levels
  • Clear skies
Temperature
25°C / 77°F
Dewpoint
C / 45°F
Humidity
32%
Altimeter
29.97" Hg
Pressure
1014.92 hPa
Previous

2 hours ago

OIAH 200400Z 00000KT CAVOK 23/07 Q1015
Observed
Oct-20 @ 04:00 UTC
Visibility
10,000+ meters
Flight Rules
VFR
Cloud Levels
  • Clear skies
Temperature
23°C / 73°F
Dewpoint
C / 45°F
Humidity
36%
Altimeter
29.97" Hg
Pressure
1014.92 hPa
Previous

3 hours ago

OIAH 200300Z 00000KT CAVOK 19/07 Q1014
Observed
Oct-20 @ 03:00 UTC
Visibility
10,000+ meters
Flight Rules
VFR
Cloud Levels
  • Clear skies
Temperature
19°C / 66°F
Dewpoint
C / 45°F
Humidity
46%
Altimeter
29.94" Hg
Pressure
1013.92 hPa